Time;durP1;ratioP1;P1;durP2;ratioP2;P2;SDS_P1;SDS_P2;PMS_P1;PMS_P2;Temp;Humidity;BMP_temperature;BMP_pressure;BME280_temperature;BME280_humidity;BME280_pressure;Samples;Min_cycle;Max_cycle;Signal;HPM_P1;HPM_P2
2021/08/23 00:00:58;;;;;;;4.13;2.07;;;;;;;14.65;100.00;101197.59;5054872;28;20198;-76
2021/08/23 00:03:23;;;;;;;3.57;2.43;;;;;;;14.54;100.00;101198.28;5037238;28;20171;-75
2021/08/23 00:05:48;;;;;;;5.10;2.30;;;;;;;14.51;100.00;101201.19;5037170;28;20191;-75
2021/08/23 00:08:14;;;;;;;5.70;2.93;;;;;;;14.42;100.00;101201.69;5036905;28;20174;-75
2021/08/23 00:10:40;;;;;;;6.53;2.80;;;;;;;14.37;100.00;101201.13;5053803;28;20335;-76
2021/08/23 00:13:06;;;;;;;5.07;3.20;;;;;;;14.26;100.00;101207.19;5053536;28;20206;-76
2021/08/23 00:15:31;;;;;;;10.17;2.90;;;;;;;14.31;100.00;101213.13;5053433;28;20209;-76
2021/08/23 00:17:57;;;;;;;5.93;3.40;;;;;;;14.29;100.00;101206.13;5053428;28;20182;-77
2021/08/23 00:20:25;;;;;;;5.90;2.87;;;;;;;14.29;100.00;101212.38;5054796;28;20179;-76
2021/08/23 00:22:54;;;;;;;6.37;3.23;;;;;;;14.33;100.00;101218.41;5053160;28;20188;-75
2021/08/23 00:25:20;;;;;;;9.07;4.40;;;;;;;14.30;100.00;101222.16;5037089;28;20187;-76
2021/08/23 00:27:46;;;;;;;6.07;3.43;;;;;;;14.28;100.00;101217.81;5036432;28;20176;-76
2021/08/23 00:30:12;;;;;;;6.57;3.73;;;;;;;14.24;100.00;101225.22;5036776;28;20179;-77
2021/08/23 00:32:39;;;;;;;9.00;4.10;;;;;;;14.15;100.00;101217.72;5036461;28;20179;-75
2021/08/23 00:35:04;;;;;;;7.47;3.77;;;;;;;14.09;100.00;101221.63;5036333;28;20264;-77
2021/08/23 00:37:30;;;;;;;7.47;3.67;;;;;;;14.07;100.00;101218.19;5053288;28;20229;-77
2021/08/23 00:39:55;;;;;;;5.70;3.53;;;;;;;14.06;100.00;101223.63;5053376;28;20733;-77
2021/08/23 00:42:20;;;;;;;8.13;4.20;;;;;;;14.03;100.00;101224.69;5052833;28;20196;-76
2021/08/23 00:44:45;;;;;;;4.63;3.63;;;;;;;14.04;100.00;101229.09;5036094;28;20187;-77
2021/08/23 00:47:11;;;;;;;6.87;3.70;;;;;;;13.95;100.00;101218.94;5036178;28;20179;-76
2021/08/23 00:49:37;;;;;;;6.40;3.93;;;;;;;13.97;100.00;101222.41;5036876;28;20172;-77
2021/08/23 00:52:05;;;;;;;10.70;3.70;;;;;;;13.98;100.00;101225.94;5036111;28;20202;-76
2021/08/23 00:54:30;;;;;;;6.93;4.10;;;;;;;13.96;100.00;101226.03;5035951;28;20191;-77
2021/08/23 00:56:55;;;;;;;6.10;4.03;;;;;;;13.88;100.00;101222.09;5052808;28;20176;-76
2021/08/23 00:59:25;;;;;;;6.73;4.50;;;;;;;13.91;100.00;101225.44;5036164;28;20333;-76
2021/08/23 01:01:56;;;;;;;8.77;4.50;;;;;;;13.91;100.00;101230.81;5052359;28;20683;-77
2021/08/23 01:04:33;;;;;;;6.83;4.03;;;;;;;13.93;100.00;101226.22;5036114;28;20297;-76
2021/08/23 01:07:00;;;;;;;6.37;4.50;;;;;;;13.94;100.00;101227.94;5036192;28;20221;-75
2021/08/23 01:09:26;;;;;;;7.93;4.23;;;;;;;13.94;100.00;101232.44;5052815;28;20164;-76
2021/08/23 01:11:54;;;;;;;7.83;4.60;;;;;;;13.96;100.00;101235.91;5035516;28;20207;-77
2021/08/23 01:14:20;;;;;;;4.87;4.10;;;;;;;13.98;100.00;101236.66;5036015;28;20249;-76
2021/08/23 01:16:45;;;;;;;8.57;4.00;;;;;;;14.00;100.00;101237.44;5035986;28;20539;-77
2021/08/23 01:19:11;;;;;;;9.83;4.23;;;;;;;13.89;100.00;101240.78;5052403;28;20203;-75
2021/08/23 01:21:36;;;;;;;13.83;4.90;;;;;;;13.91;100.00;101238.88;5052598;28;20651;-77
2021/08/23 01:24:03;;;;;;;8.07;4.00;;;;;;;13.96;100.00;101234.09;5052178;28;20262;-76
2021/08/23 01:26:32;;;;;;;6.63;4.90;;;;;;;13.90;100.00;101238.97;5037333;28;20171;-76
2021/08/23 01:29:16;;;;;;;4.00;3.53;;;;;;;13.92;100.00;101239.72;5052211;28;20171;-76
2021/08/23 01:31:51;;;;;;;6.37;3.83;;;;;;;13.87;100.00;101228.41;5052911;28;20210;-78
2021/08/23 01:34:17;;;;;;;9.73;4.60;;;;;;;13.89;100.00;101238.09;5053528;28;20183;-77
2021/08/23 01:36:43;;;;;;;12.63;4.27;;;;;;;13.89;100.00;101240.78;5052383;28;20640;-77
2021/08/23 01:39:08;;;;;;;12.00;4.80;;;;;;;13.84;100.00;101239.34;5052068;28;20206;-76
2021/08/23 01:41:33;;;;;;;7.90;4.30;;;;;;;13.87;100.00;101240.00;5034957;28;20203;-76
2021/08/23 01:43:59;;;;;;;7.43;4.57;;;;;;;13.80;100.00;101237.78;5051811;28;20175;-76
2021/08/23 01:46:29;;;;;;;6.43;4.13;;;;;;;13.85;100.00;101241.06;5035041;28;20179;-77
2021/08/23 01:48:54;;;;;;;9.67;4.63;;;;;;;13.82;100.00;101239.44;5035405;28;20163;-74
2021/08/23 01:51:20;;;;;;;5.70;5.07;;;;;;;13.75;100.00;101230.00;5051469;28;20195;-75
2021/08/23 01:53:45;;;;;;;6.83;5.17;;;;;;;13.77;100.00;101234.34;5035123;28;20183;-75
2021/08/23 01:56:10;;;;;;;12.97;5.13;;;;;;;13.76;100.00;101234.44;5034917;28;20206;-76
2021/08/23 01:58:36;;;;;;;8.17;4.90;;;;;;;13.80;100.00;101233.28;5034887;28;20640;-76
2021/08/23 02:01:01;;;;;;;9.53;4.83;;;;;;;13.73;100.00;101239.94;5051900;28;20195;-77
2021/08/23 02:03:26;;;;;;;8.53;4.50;;;;;;;13.68;100.00;101234.88;5052116;28;20675;-77
2021/08/23 02:05:51;;;;;;;7.03;4.63;;;;;;;13.74;100.00;101236.31;5051865;28;20644;-77
2021/08/23 02:08:17;;;;;;;5.40;3.97;;;;;;;13.71;100.00;101233.81;5052849;28;20176;-76
2021/08/23 02:10:42;;;;;;;7.00;4.40;;;;;;;13.71;100.00;101245.41;5051782;28;20215;-77
2021/08/23 02:13:07;;;;;;;6.63;4.60;;;;;;;13.61;100.00;101243.38;5035000;28;20175;-77
2021/08/23 02:15:33;;;;;;;8.90;4.50;;;;;;;13.59;100.00;101237.25;5052158;28;20203;-78
2021/08/23 02:17:58;;;;;;;8.90;4.60;;;;;;;13.57;100.00;101241.84;5034719;28;20184;-76
2021/08/23 02:20:23;;;;;;;9.03;5.20;;;;;;;13.56;100.00;101246.34;5051545;28;20171;-77
2021/08/23 02:22:49;;;;;;;6.77;4.63;;;;;;;13.55;100.00;101241.06;5035014;28;20694;-77
2021/08/23 02:25:19;;;;;;;7.77;4.53;;;;;;;13.58;100.00;101246.25;5053995;28;20180;-77
2021/08/23 02:27:44;;;;;;;7.00;4.03;;;;;;;13.58;100.00;101243.56;5036953;28;20183;-77
2021/08/23 02:30:10;;;;;;;10.57;5.10;;;;;;;13.55;100.00;101249.97;5052964;28;20489;-77
2021/08/23 02:32:36;;;;;;;9.57;4.73;;;;;;;13.55;100.00;101254.47;5035831;28;20191;-77
2021/08/23 02:35:01;;;;;;;6.83;4.80;;;;;;;13.48;100.00;101263.81;5035593;28;20175;-77
2021/08/23 02:37:26;;;;;;;10.33;5.23;;;;;;;13.48;100.00;101261.16;5035634;28;20229;-76
2021/08/23 02:39:52;;;;;;;9.93;5.50;;;;;;;13.45;100.00;101263.06;5054150;28;20195;-77
2021/08/23 02:42:17;;;;;;;9.93;5.47;;;;;;;13.41;100.00;101266.00;5053736;28;20199;-77
2021/08/23 02:44:42;;;;;;;13.70;5.80;;;;;;;13.41;100.00;101264.19;5052883;28;20175;-77
2021/08/23 02:47:07;;;;;;;8.97;5.50;;;;;;;13.38;100.00;101271.50;5051657;28;20179;-77
2021/08/23 02:49:33;;;;;;;11.37;5.77;;;;;;;13.38;100.00;101267.06;5052640;28;20263;-77
2021/08/23 02:51:58;;;;;;;7.27;5.47;;;;;;;13.38;100.00;101263.47;5051136;28;20196;-76
2021/08/23 02:54:25;;;;;;;10.03;5.97;;;;;;;13.38;100.00;101269.72;5052664;28;20496;-76
2021/08/23 02:56:50;;;;;;;7.80;5.50;;;;;;;13.37;100.00;101270.66;5039543;28;20183;-76
2021/08/23 02:59:15;;;;;;;10.33;5.40;;;;;;;13.38;100.00;101275.09;5055611;28;20198;-77
2021/08/23 03:01:41;;;;;;;10.70;5.83;;;;;;;13.37;100.00;101277.84;5038700;28;20199;-77
2021/08/23 03:04:06;;;;;;;9.13;5.67;;;;;;;13.31;100.00;101286.22;5038526;28;20233;-77
2021/08/23 03:06:31;;;;;;;6.10;4.90;;;;;;;13.28;100.00;101281.91;5038281;28;20187;-76
2021/08/23 03:08:57;;;;;;;6.00;4.53;;;;;;;13.27;100.00;101290.03;5055177;28;20171;-78
2021/08/23 03:11:22;;;;;;;12.57;6.10;;;;;;;13.25;100.00;101282.09;5054955;28;20207;-77
2021/08/23 03:13:48;;;;;;;6.07;4.93;;;;;;;13.23;100.00;101289.34;5054973;28;20225;-77
2021/08/23 03:16:13;;;;;;;8.17;4.80;;;;;;;13.21;100.00;101287.72;5037787;28;20270;-77
2021/08/23 03:18:39;;;;;;;7.30;5.00;;;;;;;13.17;100.00;101288.81;5039343;28;20261;-78
2021/08/23 03:21:05;;;;;;;6.03;4.80;;;;;;;13.13;100.00;101291.66;5056551;28;20278;-77
2021/08/23 03:23:31;;;;;;;11.67;4.60;;;;;;;13.12;100.00;101289.06;5039087;28;20175;-76
2021/08/23 03:25:57;;;;;;;5.10;4.00;;;;;;;13.07;100.00;101285.78;5054643;28;20671;-77
2021/08/23 03:28:22;;;;;;;5.80;4.47;;;;;;;13.11;100.00;101290.88;5054698;28;20259;-77
2021/08/23 03:30:48;;;;;;;6.33;4.70;;;;;;;13.06;100.00;101287.59;5054860;28;20187;-76
2021/08/23 03:33:13;;;;;;;6.63;4.37;;;;;;;13.08;100.00;101290.19;5054723;28;20176;-77
2021/08/23 03:35:39;;;;;;;6.83;4.47;;;;;;;13.04;100.00;101294.00;5037721;28;20205;-76
2021/08/23 03:38:04;;;;;;;5.77;4.47;;;;;;;13.03;100.00;101287.78;5055249;28;20176;-77
2021/08/23 03:40:30;;;;;;;7.53;4.60;;;;;;;13.05;100.00;101288.56;5038075;28;20202;-77
2021/08/23 03:42:55;;;;;;;9.57;4.17;;;;;;;13.05;100.00;101295.72;5055016;28;20645;-77
2021/08/23 03:45:21;;;;;;;6.47;3.73;;;;;;;13.09;100.00;101297.28;5054455;28;20164;-77
2021/08/23 03:47:46;;;;;;;7.40;4.10;;;;;;;13.03;100.00;101292.28;5053977;28;20182;-77
2021/08/23 03:50:11;;;;;;;6.63;3.33;;;;;;;13.01;100.00;101300.41;5037870;28;20180;-77
2021/08/23 03:52:36;;;;;;;7.27;3.73;;;;;;;12.99;100.00;101298.72;5056129;28;20199;-77
2021/08/23 03:55:03;;;;;;;7.17;3.57;;;;;;;12.91;100.00;101296.47;5037660;28;20171;-77
2021/08/23 03:57:32;;;;;;;4.97;3.40;;;;;;;12.84;100.00;101303.13;5054169;28;20195;-77
2021/08/23 03:59:57;;;;;;;8.70;3.20;;;;;;;12.81;100.00;101309.53;5055340;28;20196;-78
2021/08/23 04:02:23;;;;;;;5.13;3.07;;;;;;;12.72;100.00;101304.66;5055415;28;20191;-77
2021/08/23 04:04:48;;;;;;;3.00;2.70;;;;;;;12.78;100.00;101311.50;5037898;28;20615;-76
2021/08/23 04:07:13;;;;;;;5.77;2.30;;;;;;;12.74;100.00;101310.81;5054081;28;20179;-76
2021/08/23 04:09:38;;;;;;;4.70;3.23;;;;;;;12.65;100.00;101319.34;5054468;28;20163;-76
2021/08/23 04:12:04;;;;;;;6.17;3.10;;;;;;;12.60;100.00;101312.47;5074907;22;20231;-72
2021/08/23 04:14:29;;;;;;;5.00;2.77;;;;;;;12.52;100.00;101313.75;5054788;28;20518;-72
2021/08/23 04:16:55;;;;;;;5.20;2.83;;;;;;;12.52;100.00;101319.13;5036647;28;20180;-72
2021/08/23 04:19:20;;;;;;;5.40;3.07;;;;;;;12.44;100.00;101313.31;5036477;28;20203;-72
2021/08/23 04:21:45;;;;;;;5.13;2.70;;;;;;;12.35;100.00;101320.97;5054717;28;20199;-71
2021/08/23 04:24:11;;;;;;;3.63;2.53;;;;;;;12.35;100.00;101323.66;5054583;28;20198;-71
2021/08/23 04:26:36;;;;;;;7.97;2.27;;;;;;;12.19;100.00;101323.56;5054684;28;20702;-70
2021/08/23 04:29:01;;;;;;;4.33;2.40;;;;;;;12.17;100.00;101322.78;5053466;28;20187;-70
2021/08/23 04:31:31;;;;;;;5.45;2.05;;;;;;;12.20;100.00;101326.16;5061002;28;20199;-69
2021/08/23 04:33:56;;;;;;;2.90;1.90;;;;;;;12.22;100.00;101328.75;5063526;28;20577;-72
2021/08/23 04:36:21;;;;;;;5.83;1.67;;;;;;;12.23;100.00;101327.81;5067958;28;20211;-70
2021/08/23 04:38:46;;;;;;;3.03;1.80;;;;;;;12.41;100.00;101334.88;5069417;28;20204;-70
2021/08/23 04:41:12;;;;;;;4.93;2.13;;;;;;;12.41;100.00;101329.53;5072039;28;20314;-70
2021/08/23 04:43:37;;;;;;;2.40;1.20;;;;;;;12.61;100.00;101332.94;5071217;28;20175;-71
2021/08/23 04:46:02;;;;;;;2.50;1.43;;;;;;;12.49;100.00;101338.03;5059208;28;20549;-70
2021/08/23 04:48:28;;;;;;;6.50;1.70;;;;;;;12.68;100.00;101337.94;5054436;28;20172;-70
2021/08/23 04:50:53;;;;;;;1.83;1.50;;;;;;;13.19;100.00;101341.41;5053995;28;20199;-70
2021/08/23 04:53:18;;;;;;;3.13;1.67;;;;;;;13.20;100.00;101342.28;5053067;28;20190;-69
2021/08/23 04:55:44;;;;;;;2.57;1.40;;;;;;;13.29;100.00;101347.13;5052970;28;20168;-70
2021/08/23 04:58:09;;;;;;;2.47;1.40;;;;;;;13.41;100.00;101341.94;5053844;28;20251;-70
2021/08/23 05:00:34;;;;;;;5.87;1.70;;;;;;;13.59;100.00;101353.44;5052812;28;20640;-70
2021/08/23 05:02:59;;;;;;;4.57;1.70;;;;;;;13.68;100.00;101352.91;5053063;28;20171;-71
2021/08/23 05:05:25;;;;;;;2.63;1.37;;;;;;;13.88;98.94;101348.19;5053935;28;20186;-70
2021/08/23 05:07:50;;;;;;;3.63;2.07;;;;;;;13.96;98.18;101356.66;5053878;28;20172;-70
2021/08/23 05:10:15;;;;;;;2.40;1.17;;;;;;;13.98;98.11;101358.31;5035980;28;20202;-72
2021/08/23 05:12:41;;;;;;;3.00;1.30;;;;;;;14.07;97.11;101357.75;5053581;28;20207;-70
2021/08/23 05:15:06;;;;;;;5.90;1.60;;;;;;;14.17;96.13;101379.56;5052442;28;20172;-71
2021/08/23 05:17:32;;;;;;;2.00;1.40;;;;;;;14.29;95.07;101372.59;5053202;28;20341;-71
2021/08/23 05:19:58;;;;;;;3.30;1.50;;;;;;;14.37;94.48;101373.00;5053703;28;20206;-70
2021/08/23 05:22:24;;;;;;;4.50;1.50;;;;;;;14.35;95.13;101377.59;5052329;28;20188;-71
2021/08/23 05:24:50;;;;;;;3.37;1.30;;;;;;;14.42;92.73;101373.56;5052231;28;20578;-70
2021/08/23 05:27:15;;;;;;;1.83;1.40;;;;;;;14.47;93.24;101381.38;5052172;28;20219;-69
2021/08/23 05:29:40;;;;;;;3.13;1.40;;;;;;;14.47;93.17;101384.94;5053535;28;20168;-69
2021/08/23 05:32:06;;;;;;;4.43;1.53;;;;;;;14.55;92.82;101387.19;5035309;28;20230;-69
2021/08/23 05:34:31;;;;;;;3.77;1.30;;;;;;;14.51;93.98;101397.25;5053266;28;20214;-70
2021/08/23 05:36:56;;;;;;;3.00;1.53;;;;;;;14.59;93.31;101392.28;5052007;28;20711;-69
2021/08/23 05:39:22;;;;;;;3.87;1.30;;;;;;;14.63;93.95;101393.81;5052283;28;20241;-69
2021/08/23 05:41:47;;;;;;;2.47;1.40;;;;;;;14.69;94.09;101393.44;5051873;28;20199;-70
2021/08/23 05:44:12;;;;;;;2.13;1.50;;;;;;;14.76;94.59;101399.28;5052413;28;20175;-69
2021/08/23 05:46:37;;;;;;;2.17;1.23;;;;;;;14.91;93.39;101402.88;5052993;28;20536;-69
2021/08/23 05:49:03;;;;;;;2.23;1.20;;;;;;;14.99;92.34;101411.31;5053052;28;20628;-69
2021/08/23 05:51:28;;;;;;;4.20;1.50;;;;;;;15.05;91.46;101402.88;5035289;28;20202;-69
2021/08/23 05:53:53;;;;;;;3.97;1.40;;;;;;;15.04;91.19;101414.56;5053008;28;20264;-69
2021/08/23 05:56:19;;;;;;;3.37;1.33;;;;;;;15.11;90.81;101409.69;5052567;28;20311;-69
2021/08/23 05:58:44;;;;;;;2.37;1.17;;;;;;;15.14;90.07;101410.34;5052474;28;20195;-69
2021/08/23 06:01:09;;;;;;;3.63;1.47;;;;;;;15.12;89.23;101416.78;5052017;28;20690;-69
2021/08/23 06:03:34;;;;;;;7.03;1.90;;;;;;;15.16;86.96;101424.56;5035840;28;20179;-69
2021/08/23 06:06:04;;;;;;;5.63;2.13;;;;;;;15.23;85.85;101416.97;5053137;28;20206;-70
2021/08/23 06:08:30;;;;;;;3.77;1.63;;;;;;;15.23;85.38;101420.50;5051589;28;20259;-69
2021/08/23 06:10:55;;;;;;;5.80;1.20;;;;;;;15.25;84.52;101421.31;5051641;28;20269;-70
2021/08/23 06:13:21;;;;;;;3.10;1.47;;;;;;;15.34;83.17;101419.84;5051454;28;20175;-69
2021/08/23 06:15:46;;;;;;;4.00;1.47;;;;;;;15.40;83.10;101432.91;5052734;28;20179;-68
2021/08/23 06:18:11;;;;;;;3.67;1.37;;;;;;;15.50;82.66;101431.34;5052162;28;20175;-70
2021/08/23 06:20:37;;;;;;;2.10;1.00;;;;;;;15.56;80.84;101427.41;5051382;28;20174;-70
2021/08/23 06:23:02;;;;;;;2.70;1.20;;;;;;;15.73;79.11;101431.75;5052800;28;20636;-69
2021/08/23 06:25:27;;;;;;;3.90;1.70;;;;;;;15.81;78.44;101432.97;5052832;28;20509;-70
2021/08/23 06:27:52;;;;;;;3.47;1.30;;;;;;;15.89;77.99;101430.63;5035009;28;20171;-69
2021/08/23 06:30:18;;;;;;;2.20;1.30;;;;;;;15.94;77.16;101433.88;5055263;28;20172;-69
2021/08/23 06:32:43;;;;;;;2.10;1.20;;;;;;;15.98;74.58;101436.38;5055462;28;20280;-69
2021/08/23 06:35:09;;;;;;;5.03;1.20;;;;;;;16.03;73.52;101440.50;5055073;28;20176;-69
2021/08/23 06:37:36;;;;;;;2.77;1.03;;;;;;;16.11;73.39;101442.69;5056211;28;20182;-69
2021/08/23 06:40:07;;;;;;;2.70;1.70;;;;;;;16.16;72.92;101445.94;5055341;28;20208;-69
2021/08/23 06:42:32;;;;;;;2.10;1.37;;;;;;;16.23;72.67;101449.94;5056379;28;20206;-70
2021/08/23 06:44:58;;;;;;;2.20;1.43;;;;;;;16.29;71.69;101448.66;5056357;28;20179;-70
2021/08/23 06:47:23;;;;;;;1.60;1.17;;;;;;;16.27;70.72;101446.06;5055525;28;20175;-68
2021/08/23 06:49:48;;;;;;;2.23;1.50;;;;;;;16.29;71.95;101444.13;5055941;28;20167;-69
2021/08/23 06:52:13;;;;;;;2.57;1.47;;;;;;;16.31;71.88;101452.97;5055992;28;20202;-68
2021/08/23 06:54:39;;;;;;;4.00;1.43;;;;;;;16.38;70.92;101440.00;5055771;28;20168;-68
2021/08/23 06:57:04;;;;;;;2.50;1.47;;;;;;;16.46;70.15;101437.63;5055980;28;20655;-70
2021/08/23 06:59:29;;;;;;;1.97;1.23;;;;;;;16.51;70.24;101451.66;5056051;28;20196;-69
2021/08/23 07:01:55;;;;;;;3.37;1.50;;;;;;;16.52;70.59;101451.53;5057462;28;20195;-68
2021/08/23 07:04:20;;;;;;;2.87;1.70;;;;;;;16.56;70.12;101457.59;5056420;28;20179;-68
2021/08/23 07:06:46;;;;;;;4.17;1.60;;;;;;;16.68;68.63;101442.44;5056083;28;20644;-70
2021/08/23 07:09:11;;;;;;;2.40;1.37;;;;;;;16.67;69.34;101452.34;5055806;28;20171;-70
2021/08/23 07:11:37;;;;;;;5.17;1.53;;;;;;;16.78;69.64;101462.41;5055596;28;20207;-69
2021/08/23 07:14:02;;;;;;;1.77;1.47;;;;;;;16.73;69.84;101462.75;5055946;28;20175;-69
2021/08/23 07:16:27;;;;;;;2.90;1.47;;;;;;;16.89;69.70;101462.53;5056117;28;20188;-69
2021/08/23 07:18:53;;;;;;;4.60;1.80;;;;;;;16.98;70.14;101467.28;5055529;28;20207;-70
2021/08/23 07:21:18;;;;;;;3.43;1.50;;;;;;;17.01;69.92;101469.75;5055815;28;20192;-69
2021/08/23 07:23:43;;;;;;;3.37;1.47;;;;;;;17.17;69.44;101474.97;5055977;28;20179;-71
2021/08/23 07:26:08;;;;;;;2.90;2.00;;;;;;;17.23;68.71;101468.25;5054182;28;20679;-69
2021/08/23 07:28:34;;;;;;;2.60;1.80;;;;;;;17.22;68.77;101466.53;5055252;28;20171;-70
2021/08/23 07:30:59;;;;;;;4.77;2.27;;;;;;;17.18;68.95;101461.38;5054995;28;20202;-70
2021/08/23 07:33:24;;;;;;;1.70;1.43;;;;;;;17.28;68.94;101466.09;5056085;28;20211;-69
2021/08/23 07:35:50;;;;;;;3.13;1.60;;;;;;;17.36;70.17;101469.09;5055194;28;20195;-69
2021/08/23 07:38:15;;;;;;;2.23;1.40;;;;;;;17.45;69.54;101484.63;5053925;28;20548;-69
2021/08/23 07:40:41;;;;;;;2.97;1.33;;;;;;;17.49;70.40;101476.25;5052975;28;20625;-70
2021/08/23 07:43:06;;;;;;;2.47;1.23;;;;;;;17.56;70.32;101475.78;5055285;28;20180;-70
2021/08/23 07:45:31;;;;;;;2.63;1.50;;;;;;;17.56;69.64;101481.19;5055375;28;20179;-70
2021/08/23 07:47:56;;;;;;;3.90;1.60;;;;;;;17.59;68.94;101471.03;5054517;28;20176;-70
2021/08/23 07:50:22;;;;;;;1.97;1.20;;;;;;;17.79;69.26;101472.31;5054161;28;20602;-70
2021/08/23 07:52:47;;;;;;;2.13;1.40;;;;;;;17.83;68.48;101467.53;5053787;28;20191;-69
2021/08/23 07:55:13;;;;;;;1.60;1.20;;;;;;;17.86;67.94;101475.44;5054799;28;20203;-69
2021/08/23 07:57:47;;;;;;;3.13;1.53;;;;;;;17.89;69.55;101489.59;5036715;28;20179;-70
2021/08/23 08:00:14;;;;;;;4.17;1.70;;;;;;;17.93;68.77;101488.38;5036838;28;20191;-70
2021/08/23 08:02:40;;;;;;;2.13;1.30;;;;;;;17.96;69.11;101490.84;5054536;28;20245;-70
2021/08/23 08:05:06;;;;;;;2.00;1.37;;;;;;;17.98;67.72;101474.53;5053720;28;20180;-70
2021/08/23 08:07:31;;;;;;;3.70;1.20;;;;;;;18.04;68.02;101477.63;5054628;28;20184;-70
2021/08/23 08:09:56;;;;;;;3.70;1.50;;;;;;;18.09;67.25;101501.59;5036799;28;20565;-70
2021/08/23 08:12:22;;;;;;;3.20;1.63;;;;;;;18.19;66.32;101489.13;5053914;28;20729;-70
2021/08/23 08:14:48;;;;;;;3.50;1.40;;;;;;;18.01;66.22;101491.38;5055179;28;20233;-68
2021/08/23 08:17:13;;;;;;;3.13;1.50;;;;;;;18.12;67.82;101490.56;5053279;28;20190;-70
2021/08/23 08:19:39;;;;;;;6.23;1.37;;;;;;;18.28;68.40;101503.81;5054562;28;20203;-70
2021/08/23 08:22:05;;;;;;;7.47;1.33;;;;;;;18.33;67.66;101488.97;5052936;28;20191;-70
2021/08/23 08:24:31;;;;;;;2.47;1.67;;;;;;;18.29;66.95;101495.59;5053225;28;20182;-70
2021/08/23 08:26:57;;;;;;;3.10;1.37;;;;;;;18.20;66.94;101512.47;5052963;28;20171;-70
2021/08/23 08:29:22;;;;;;;3.70;1.70;;;;;;;18.26;66.42;101503.06;5054136;28;20535;-69
2021/08/23 08:31:47;;;;;;;3.33;1.30;;;;;;;18.12;66.66;101498.66;5053945;28;20563;-69
2021/08/23 08:34:13;;;;;;;5.13;1.50;;;;;;;18.02;66.32;101511.13;5054156;28;20179;-69
2021/08/23 08:36:38;;;;;;;4.53;1.60;;;;;;;18.08;66.24;101513.38;5053302;28;20178;-69
2021/08/23 08:39:03;;;;;;;3.30;1.60;;;;;;;18.00;67.06;101515.78;5054488;28;20556;-70
2021/08/23 08:41:30;;;;;;;2.07;1.30;;;;;;;18.10;67.14;101514.13;5053842;28;20202;-70
2021/08/23 08:43:56;;;;;;;4.23;1.40;;;;;;;18.12;67.13;101522.97;5052703;28;20586;-69
2021/08/23 08:46:22;;;;;;;1.80;1.33;;;;;;;18.44;66.78;101507.94;5054087;28;20171;-70
2021/08/23 08:48:47;;;;;;;3.43;1.50;;;;;;;18.36;64.90;101513.06;5052824;28;20183;-68
2021/08/23 08:51:14;;;;;;;6.77;1.53;;;;;;;18.25;64.60;101513.00;5052279;28;20207;-69
2021/08/23 08:53:39;;;;;;;2.70;1.40;;;;;;;18.29;64.03;101519.06;5052609;28;20213;-69
2021/08/23 08:56:05;;;;;;;3.63;1.87;;;;;;;18.48;63.60;101524.78;5052673;28;20750;-69
2021/08/23 08:58:30;;;;;;;2.80;1.77;;;;;;;18.53;62.63;101527.16;5052326;28;20233;-69
2021/08/23 09:00:55;;;;;;;5.40;1.40;;;;;;;18.62;60.85;101519.25;5035498;28;20198;-68
2021/08/23 09:03:27;;;;;;;4.53;2.20;;;;;;;18.67;59.57;101522.47;5053478;28;20263;-69
2021/08/23 09:06:00;;;;;;;13.27;1.90;;;;;;;18.76;59.78;101539.81;5052187;28;20252;-69
2021/08/23 09:08:28;;;;;;;3.37;1.50;;;;;;;18.68;59.49;101523.34;5053632;28;20156;-70
2021/08/23 09:10:55;;;;;;;3.07;1.40;;;;;;;18.80;60.16;101549.44;5053503;28;20211;-70
2021/08/23 09:13:20;;;;;;;2.37;1.50;;;;;;;18.95;60.15;101534.72;5052282;28;20164;-70
2021/08/23 09:15:53;;;;;;;2.43;1.50;;;;;;;18.90;59.10;101530.66;5053290;28;20308;-70
2021/08/23 09:18:20;;;;;;;4.50;1.40;;;;;;;19.08;58.95;101553.59;5052022;28;20539;-70
2021/08/23 09:20:59;;;;;;;2.37;1.13;;;;;;;19.07;58.63;101542.91;5051843;28;20187;-69
2021/08/23 09:23:40;;;;;;;2.40;1.17;;;;;;;19.13;59.00;101540.56;5052106;28;20156;-70
2021/08/23 09:26:08;;;;;;;1.70;1.47;;;;;;;19.03;58.71;101542.28;5054016;28;20160;-71
2021/08/23 09:28:33;;;;;;;9.30;1.67;;;;;;;19.02;57.51;101529.72;5053493;28;20180;-71
2021/08/23 09:30:58;;;;;;;1.70;1.10;;;;;;;19.01;57.89;101536.97;5053534;28;20206;-70
2021/08/23 09:33:24;;;;;;;1.93;1.33;;;;;;;19.02;58.32;101525.19;5053326;28;20277;-70
2021/08/23 09:35:51;;;;;;;6.83;1.57;;;;;;;19.28;59.04;101542.06;5053405;28;20186;-69
2021/08/23 09:38:18;;;;;;;1.47;1.20;;;;;;;19.31;58.35;101532.84;5052708;28;20571;-69
2021/08/23 09:40:43;;;;;;;3.13;1.40;;;;;;;19.64;58.92;101553.72;5035639;28;20175;-71
2021/08/23 09:43:13;;;;;;;3.03;1.50;;;;;;;19.91;56.20;101543.38;5053171;28;20183;-70
2021/08/23 09:45:44;;;;;;;5.83;1.40;;;;;;;19.90;57.39;101538.09;5052333;28;20180;-71
2021/08/23 09:48:10;;;;;;;3.60;1.43;;;;;;;19.96;56.51;101548.44;5053612;28;20242;-71
2021/08/23 09:50:47;;;;;;;3.90;1.30;;;;;;;19.94;57.14;101540.41;5051980;28;20203;-72
2021/08/23 09:53:14;;;;;;;2.63;1.20;;;;;;;20.18;56.43;101558.38;5052107;28;20175;-70
2021/08/23 09:55:41;;;;;;;4.23;1.67;;;;;;;19.89;54.32;101552.63;5052784;28;20217;-70
2021/08/23 09:58:08;;;;;;;4.47;1.50;;;;;;;19.77;55.67;101556.31;5052160;28;20179;-70
2021/08/23 10:00:34;;;;;;;4.53;1.60;;;;;;;20.04;54.45;101553.22;5053394;28;20210;-70
2021/08/23 10:03:01;;;;;;;3.50;1.57;;;;;;;20.13;54.57;101561.47;5057401;28;20203;-70
2021/08/23 10:05:27;;;;;;;2.30;1.43;;;;;;;20.20;55.01;101572.69;5057843;28;20186;-71
2021/08/23 10:07:52;;;;;;;1.43;1.23;;;;;;;20.17;54.25;101554.81;5058116;28;20175;-72
2021/08/23 10:10:19;;;;;;;3.10;1.20;;;;;;;20.12;53.79;101557.03;5057228;28;20262;-71
2021/08/23 10:12:45;;;;;;;2.97;1.20;;;;;;;20.36;53.84;101569.56;5072225;22;20307;-68
2021/08/23 10:15:10;;;;;;;3.17;1.47;;;;;;;20.35;52.39;101573.25;5052887;28;20184;-67
2021/08/23 10:17:38;;;;;;;2.07;1.23;;;;;;;20.16;52.51;101565.78;5051489;28;20201;-70
2021/08/23 10:20:08;;;;;;;6.47;1.43;;;;;;;20.48;52.92;101577.59;5051712;28;20203;-67
2021/08/23 10:22:35;;;;;;;2.93;1.43;;;;;;;20.85;53.44;101561.81;5052851;28;20203;-68
2021/08/23 10:25:01;;;;;;;2.17;1.40;;;;;;;20.76;54.13;101559.00;5051703;28;20175;-68
2021/08/23 10:27:26;;;;;;;4.40;1.80;;;;;;;21.00;53.82;101572.34;5052806;28;20186;-68
2021/08/23 10:29:52;;;;;;;2.57;1.37;;;;;;;20.35;54.58;101574.13;5051223;28;20271;-68
2021/08/23 10:32:17;;;;;;;3.13;2.10;;;;;;;20.94;54.00;101573.72;5051652;28;20195;-68
2021/08/23 10:34:43;;;;;;;1.33;1.07;;;;;;;21.02;53.57;101571.22;5052685;28;20175;-68
2021/08/23 10:37:20;;;;;;;2.10;1.20;;;;;;;20.25;54.91;101567.72;5051666;28;20226;-67
2021/08/23 10:39:57;;;;;;;4.60;1.10;;;;;;;20.17;54.75;101543.97;5051712;28;20249;-69
2021/08/23 10:42:22;;;;;;;3.20;1.50;;;;;;;20.05;55.47;101571.19;5034999;28;20191;-68
2021/08/23 10:44:47;;;;;;;2.03;1.10;;;;;;;20.07;55.65;101570.13;5034969;28;20186;-67
2021/08/23 10:47:16;;;;;;;3.03;1.47;;;;;;;20.27;55.21;101563.91;5052629;28;20176;-67
2021/08/23 10:49:45;;;;;;;2.00;1.03;;;;;;;20.03;53.65;101552.34;5052743;28;20207;-67
2021/08/23 10:52:12;;;;;;;1.87;1.23;;;;;;;20.01;53.21;101567.00;5052577;28;20593;-67
2021/08/23 10:54:40;;;;;;;5.17;1.23;;;;;;;19.88;54.19;101575.28;5052369;28;20172;-67
2021/08/23 10:57:08;;;;;;;2.50;1.50;;;;;;;19.73;54.12;101576.53;5051209;28;20275;-68
2021/08/23 10:59:37;;;;;;;1.80;1.20;;;;;;;20.08;54.14;101579.97;5051112;28;20654;-67
2021/08/23 11:02:02;;;;;;;4.20;1.37;;;;;;;20.20;53.77;101578.97;5052357;28;20237;-68
2021/08/23 11:04:33;;;;;;;0.97;0.80;;;;;;;20.22;52.68;101557.16;5052329;28;20180;-68
2021/08/23 11:07:00;;;;;;;3.23;1.10;;;;;;;21.30;51.22;101564.31;5051594;28;20175;-66
2021/08/23 11:09:39;;;;;;;1.93;1.20;;;;;;;22.70;48.02;101573.47;5052403;28;20262;-67
2021/08/23 11:12:08;;;;;;;8.60;1.50;;;;;;;22.90;47.81;101579.81;5050919;28;20631;-68
2021/08/23 11:14:42;;;;;;;6.50;1.60;;;;;;;22.93;47.54;101570.50;5052028;28;20587;-67
2021/08/23 11:17:07;;;;;;;2.90;1.17;;;;;;;24.69;44.17;101587.88;5053726;28;20157;-67